createdAt,value
2022-10-11T00:02:17.914Z,1044.68
2022-10-11T00:04:46.608Z,1060.50
2022-10-11T00:07:16.356Z,996.72
2022-10-11T00:09:44.956Z,1058.78
2022-10-11T00:12:13.443Z,1012.60
2022-10-11T00:14:41.966Z,1062.45
2022-10-11T00:17:10.322Z,991.90
2022-10-11T00:19:41.647Z,1036.05
2022-10-11T00:22:10.058Z,1032.57
2022-10-11T00:24:39.779Z,1067.55
2022-10-11T00:27:08.250Z,1044.50
2022-10-11T00:29:37.794Z,1057.18
2022-10-11T00:32:06.365Z,1027.93
2022-10-11T00:34:34.711Z,1092.28
2022-10-11T00:37:03.156Z,1101.60
2022-10-11T00:39:31.601Z,1023.10
2022-10-11T00:42:01.555Z,1008.63
2022-10-11T00:44:32.862Z,1009.97
2022-10-11T00:47:03.557Z,1024.78
2022-10-11T00:49:36.454Z,1028.30
2022-10-11T00:52:07.189Z,1067.88
2022-10-11T00:54:38.382Z,1057.75
2022-10-11T00:57:11.499Z,1117.20
2022-10-11T00:59:43.468Z,1290.80
2022-10-11T01:02:12.758Z,1174.88
2022-10-11T01:04:41.478Z,1166.43
2022-10-11T01:07:10.201Z,1156.53
2022-10-11T01:09:38.953Z,1149.78
2022-10-11T01:12:16.034Z,1366.60
2022-10-11T01:14:55.567Z,1262.82
2022-10-11T01:17:32.661Z,1293.07
2022-10-11T01:20:16.483Z,1215.60
2022-10-11T01:23:16.653Z,1179.03
2022-10-11T01:26:00.648Z,1382.60
2022-10-11T01:28:42.363Z,1156.57
2022-10-11T01:31:19.372Z,1361.10
2022-10-11T01:33:53.156Z,1364.82
2022-10-11T01:36:27.755Z,1157.47
2022-10-11T01:38:59.339Z,1232.03
2022-10-11T01:41:30.290Z,1388.65
2022-10-11T01:44:01.385Z,1436.40
2022-10-11T01:46:31.959Z,1513.68
2022-10-11T01:49:02.852Z,1310.18
2022-10-11T01:51:33.785Z,1228.03
2022-10-11T01:55:03.983Z,1348.80
2022-10-11T01:58:08.516Z,1064.10
2022-10-11T02:00:43.248Z,1002.03
2022-10-11T02:03:22.113Z,1162.57
2022-10-11T02:05:55.645Z,1192.03
2022-10-11T02:08:28.452Z,1057.03
2022-10-11T02:11:03.178Z,1155.07
2022-10-11T02:13:37.366Z,1037.97
2022-10-11T02:16:10.970Z,1070.57
2022-10-11T02:18:44.104Z,1117.87
2022-10-11T02:21:14.677Z,1119.00
2022-10-11T02:23:46.638Z,1058.63
2022-10-11T02:26:15.290Z,1110.95
2022-10-11T02:28:44.488Z,1131.63
2022-10-11T02:31:13.773Z,984.97
2022-10-11T02:33:46.650Z,957.15
2022-10-11T02:36:18.791Z,1134.78
2022-10-11T02:38:51.872Z,1125.68
2022-10-11T02:41:24.682Z,1118.38
2022-10-11T02:43:58.114Z,1085.75
2022-10-11T02:46:27.153Z,989.78
2022-10-11T02:48:57.165Z,974.97
2022-10-11T02:51:27.591Z,1082.93
2022-10-11T02:53:56.097Z,910.03
2022-10-11T02:56:24.517Z,832.83
2022-10-11T02:58:52.949Z,941.85
2022-10-11T03:01:21.381Z,955.20
2022-10-11T03:03:49.762Z,863.85
2022-10-11T03:06:19.496Z,833.97
2022-10-11T03:08:47.834Z,1018.42
2022-10-11T03:11:16.196Z,925.40
2022-10-11T03:13:44.624Z,925.67
2022-10-11T03:16:13.529Z,1060.60
2022-10-11T03:18:42.262Z,1011.90
2022-10-11T03:21:10.996Z,1046.70
2022-10-11T03:23:42.597Z,1084.72
2022-10-11T03:26:10.911Z,1088.53
2022-10-11T03:28:39.322Z,890.72
2022-10-11T03:31:08.017Z,907.05
2022-10-11T03:33:36.339Z,1047.50
2022-10-11T03:36:05.306Z,782.83
2022-10-11T03:38:34.192Z,808.03
2022-10-11T03:41:04.025Z,1018.85
2022-10-11T03:43:32.534Z,1059.75
2022-10-11T03:46:01.093Z,999.33
2022-10-11T03:48:29.794Z,771.40
2022-10-11T03:50:58.111Z,874.67
2022-10-11T03:53:26.631Z,731.03
2022-10-11T03:55:55.684Z,717.13
2022-10-11T03:58:26.140Z,767.78
2022-10-11T04:00:57.328Z,808.08
2022-10-11T04:03:25.830Z,963.33
2022-10-11T04:05:57.574Z,867.47
2022-10-11T04:08:26.027Z,961.85
2022-10-11T04:10:54.653Z,1004.58
2022-10-11T04:13:24.494Z,968.15
2022-10-11T04:15:53.036Z,997.95
2022-10-11T04:18:22.425Z,988.50
2022-10-11T04:20:51.055Z,1027.25
2022-10-11T04:23:19.539Z,1097.72
2022-10-11T04:25:48.531Z,1033.63
2022-10-11T04:28:29.968Z,1119.97
2022-10-11T04:31:20.743Z,1029.20
2022-10-11T04:33:52.008Z,1139.05
2022-10-11T04:36:21.853Z,1131.20
2022-10-11T04:39:18.487Z,1088.13
2022-10-11T04:41:47.664Z,1113.43
2022-10-11T04:44:16.208Z,1159.05
2022-10-11T04:46:46.041Z,1097.32
2022-10-11T04:49:15.038Z,1090.72
2022-10-11T04:51:43.684Z,1089.95
2022-10-11T04:54:12.174Z,1103.75
2022-10-11T04:56:40.677Z,1066.35
2022-10-11T04:59:10.150Z,1098.85
2022-10-11T05:01:47.707Z,1122.75
2022-10-11T05:04:16.285Z,1077.05
2022-10-11T05:10:02.247Z,1157.53
2022-10-11T05:12:37.086Z,1093.60
2022-10-11T05:15:08.422Z,1118.35
2022-10-11T05:17:43.644Z,1150.38
2022-10-11T05:20:13.516Z,1193.55
2022-10-11T05:22:42.348Z,1182.25
2022-10-11T05:25:11.595Z,1194.13
2022-10-11T05:27:40.047Z,1187.85
2022-10-11T05:30:09.642Z,1170.60
2022-10-11T05:32:39.555Z,1155.50
2022-10-11T05:35:09.254Z,1201.35
2022-10-11T05:37:37.870Z,1208.97
2022-10-11T05:40:07.526Z,1199.55
2022-10-11T05:42:36.026Z,1239.47
2022-10-11T05:45:04.721Z,1350.22
2022-10-11T05:47:33.228Z,1452.65
2022-10-11T05:50:03.355Z,1187.18
2022-10-11T05:52:32.714Z,1176.50
2022-10-11T05:55:01.181Z,1155.00
2022-10-11T05:57:30.619Z,1155.10
2022-10-11T05:59:59.161Z,1171.03
2022-10-11T06:05:03.177Z,1999.90
2022-10-11T06:07:32.114Z,1999.90
2022-10-11T06:10:00.630Z,1871.82
2022-10-11T06:12:30.565Z,1170.72
2022-10-11T06:14:59.223Z,1117.10
2022-10-11T06:17:27.642Z,1058.70
2022-10-11T06:19:56.031Z,1055.65
2022-10-11T06:22:26.721Z,1049.45
2022-10-11T06:27:38.140Z,1049.90
2022-10-11T06:30:08.350Z,971.45
2022-10-11T06:32:37.011Z,865.60
2022-10-11T06:35:06.456Z,819.85
2022-10-11T06:37:36.387Z,836.40
2022-10-11T06:40:05.348Z,859.40
2022-10-11T06:42:33.852Z,841.67
2022-10-11T06:45:02.792Z,883.22
2022-10-11T06:47:31.274Z,824.08
2022-10-11T06:50:00.773Z,795.95
2022-10-11T06:52:29.345Z,675.10
2022-10-11T06:54:59.546Z,758.17
2022-10-11T06:57:30.108Z,784.83
2022-10-11T06:59:58.854Z,800.33
2022-10-11T07:02:27.449Z,729.35
2022-10-11T07:04:56.056Z,806.72
2022-10-11T07:07:24.756Z,877.75
2022-10-11T07:09:53.395Z,826.63
2022-10-11T07:12:23.358Z,799.80
2022-10-11T07:14:52.065Z,765.85
2022-10-11T07:17:20.792Z,681.72
2022-10-11T07:19:49.560Z,670.53
2022-10-11T07:22:18.298Z,691.65
2022-10-11T07:24:49.151Z,661.05
2022-10-11T07:27:21.342Z,710.92
2022-10-11T07:29:51.514Z,740.80
2022-10-11T07:32:20.216Z,740.88
2022-10-11T07:34:48.854Z,647.33
2022-10-11T07:37:17.555Z,692.78
2022-10-11T07:39:46.178Z,617.53
2022-10-11T07:42:14.806Z,578.30
2022-10-11T07:44:43.339Z,554.13
2022-10-11T07:47:13.337Z,523.00
2022-10-11T07:49:41.892Z,590.58
2022-10-11T07:52:10.804Z,536.13
2022-10-11T07:54:40.137Z,510.20
2022-10-11T07:57:08.877Z,543.85
2022-10-11T07:59:37.435Z,553.85
2022-10-11T08:02:06.148Z,585.78
2022-10-11T08:04:36.159Z,590.92
2022-10-11T08:07:04.957Z,556.58
2022-10-11T08:09:33.697Z,510.90
2022-10-11T08:12:02.238Z,498.08
2022-10-11T08:14:30.862Z,655.85
2022-10-11T08:16:59.776Z,530.42
2022-10-11T08:19:31.476Z,594.05
2022-10-11T08:22:05.410Z,619.30
2022-10-11T08:24:38.330Z,569.40
2022-10-11T08:27:15.064Z,614.70
2022-10-11T08:32:26.184Z,452.25
2022-10-11T08:34:58.086Z,569.45
2022-10-11T08:40:35.411Z,621.63
2022-10-11T08:43:08.696Z,533.85
2022-10-11T08:45:43.628Z,586.03
2022-10-11T08:48:17.572Z,768.88
2022-10-11T08:51:05.781Z,643.17
2022-10-11T08:53:42.814Z,604.83
2022-10-11T08:56:12.601Z,618.13
2022-10-11T08:58:45.790Z,595.30
2022-10-11T09:01:18.789Z,566.38
2022-10-11T09:03:48.896Z,973.67
2022-10-11T09:06:26.320Z,846.97
2022-10-11T09:09:20.685Z,1044.07
2022-10-11T09:12:12.304Z,550.60
2022-10-11T09:14:59.464Z,636.35
2022-10-11T09:17:38.734Z,546.88
2022-10-11T09:20:24.038Z,495.25
2022-10-11T09:22:58.493Z,579.00
2022-10-11T09:28:15.710Z,614.97
2022-10-11T09:31:16.732Z,591.17
2022-10-11T09:33:48.409Z,1174.80
2022-10-11T09:39:26.187Z,647.55
2022-10-11T09:42:00.600Z,573.47
2022-10-11T09:46:58.951Z,484.75
2022-10-11T09:49:33.124Z,400.90
2022-10-11T09:52:06.609Z,552.15
2022-10-11T09:54:43.600Z,466.60
2022-10-11T09:57:25.117Z,578.40
2022-10-11T10:00:02.310Z,515.55
2022-10-11T10:02:31.794Z,610.35
2022-10-11T10:05:14.184Z,586.22
2022-10-11T10:08:25.558Z,577.55
2022-10-11T10:11:02.874Z,433.20
2022-10-11T10:13:41.230Z,426.63
2022-10-11T10:16:19.597Z,417.55
2022-10-11T10:19:17.569Z,508.67
2022-10-11T10:21:48.832Z,495.75
2022-10-11T10:24:22.342Z,402.75
2022-10-11T10:27:22.716Z,384.83
2022-10-11T10:30:15.933Z,387.65
2022-10-11T10:32:51.382Z,414.15
2022-10-11T10:35:30.157Z,411.20
2022-10-11T10:38:26.549Z,510.83
2022-10-11T10:40:58.277Z,427.67
2022-10-11T10:43:29.413Z,531.80
2022-10-11T10:46:20.844Z,585.17
2022-10-11T10:51:53.517Z,449.95
2022-10-11T10:54:30.896Z,443.73
2022-10-11T10:57:02.642Z,423.38
2022-10-11T10:59:48.585Z,415.05
2022-10-11T11:02:39.799Z,395.92
2022-10-11T11:05:21.265Z,465.58
2022-10-11T11:07:54.933Z,406.95
2022-10-11T11:10:26.272Z,406.55
2022-10-11T11:15:32.501Z,452.88
2022-10-11T12:52:28.385Z,568.15
2022-10-11T12:55:35.590Z,642.33
2022-10-11T12:58:27.378Z,563.88
2022-10-11T13:01:14.035Z,548.55
2022-10-11T13:03:44.703Z,611.25
2022-10-11T13:06:17.589Z,620.40
2022-10-11T13:08:50.767Z,602.72
2022-10-11T13:11:21.808Z,671.85
2022-10-11T13:13:56.741Z,614.20
2022-10-11T13:16:27.615Z,539.25
2022-10-11T13:18:58.492Z,504.65
2022-10-11T13:21:36.709Z,566.58
2022-10-11T13:24:13.399Z,492.52
2022-10-11T13:26:42.426Z,503.70
2022-10-11T13:29:17.501Z,611.55
2022-10-11T13:31:47.471Z,649.75
2022-10-11T13:34:19.709Z,601.47
2022-10-11T13:36:57.668Z,557.63
2022-10-11T13:39:31.480Z,558.80
2022-10-11T13:42:00.859Z,614.28
2022-10-11T13:44:31.181Z,732.00
2022-10-11T13:46:59.914Z,691.35
2022-10-11T13:52:58.574Z,544.55
2022-10-11T13:55:36.062Z,580.55
2022-10-11T13:58:11.975Z,600.58
2022-10-11T14:00:54.821Z,558.55
2022-10-11T14:03:24.837Z,638.38
2022-10-11T14:05:58.075Z,761.33
2022-10-11T14:08:35.855Z,578.63
2022-10-11T14:11:07.140Z,831.08
2022-10-11T14:13:38.127Z,622.20
2022-10-11T14:16:09.446Z,637.00
2022-10-11T14:18:46.676Z,702.72
2022-10-11T14:21:31.253Z,633.28
2022-10-11T14:24:02.107Z,604.72
2022-10-11T14:26:38.541Z,660.60
2022-10-11T14:29:14.070Z,694.63
2022-10-11T14:31:51.243Z,617.85
2022-10-11T15:02:19.417Z,650.72
2022-10-11T15:04:53.716Z,710.92
2022-10-11T15:07:24.824Z,681.53
2022-10-11T15:09:53.427Z,665.47
2022-10-11T15:12:21.948Z,691.75
2022-10-11T15:14:50.673Z,654.92
2022-10-11T15:17:20.720Z,694.97
2022-10-11T15:19:50.064Z,711.63
2022-10-11T15:22:30.990Z,769.03
2022-10-11T15:25:00.243Z,764.75
2022-10-11T15:32:33.480Z,684.40
2022-10-11T15:35:04.268Z,720.33
2022-10-11T15:37:37.181Z,725.53
2022-10-11T15:40:21.587Z,767.10
2022-10-11T15:42:51.455Z,747.97
2022-10-11T15:45:24.826Z,770.53
2022-10-11T15:47:56.909Z,759.10
2022-10-11T15:50:37.596Z,734.83
2022-10-11T15:53:07.403Z,701.72
2022-10-11T15:55:40.900Z,658.22
2022-10-11T15:58:11.154Z,652.03
2022-10-11T16:00:39.765Z,676.15
2022-10-11T16:03:17.736Z,732.75
2022-10-11T16:05:50.075Z,730.92
2022-10-11T16:08:26.456Z,819.67
2022-10-11T16:11:03.964Z,689.65
2022-10-11T16:13:32.887Z,668.10
2022-10-11T16:16:05.262Z,695.13
2022-10-11T16:18:51.989Z,640.55
2022-10-11T16:21:21.478Z,640.65
2022-10-11T16:23:50.207Z,621.85
2022-10-11T16:27:23.876Z,617.50
2022-10-11T16:30:03.983Z,632.03
2022-10-11T16:32:34.501Z,608.60
2022-10-11T16:35:09.875Z,655.45
2022-10-11T16:37:57.621Z,608.67
2022-10-11T16:40:28.269Z,524.72
2022-10-11T16:43:19.495Z,537.30
2022-10-11T16:46:00.738Z,565.08
2022-10-11T16:48:35.693Z,468.95
2022-10-11T16:51:11.424Z,470.45
2022-10-11T16:53:40.411Z,484.05
2022-10-11T16:56:13.439Z,524.17
2022-10-11T16:58:42.141Z,465.90
2022-10-11T17:01:16.674Z,488.90
2022-10-11T17:03:45.527Z,461.80
2022-10-11T17:06:19.987Z,460.15
2022-10-11T17:11:17.600Z,412.05
2022-10-11T17:13:46.577Z,398.33
2022-10-11T17:16:15.190Z,502.05
2022-10-11T17:18:44.316Z,460.17
2022-10-11T17:21:22.302Z,448.38
2022-10-11T17:23:51.629Z,430.90
2022-10-11T17:26:23.300Z,444.40
2022-10-11T17:29:15.621Z,460.73
2022-10-11T17:31:49.068Z,427.83
2022-10-11T17:35:08.994Z,435.77
2022-10-11T17:41:39.506Z,461.52
2022-10-11T17:45:17.924Z,461.58
2022-10-11T17:51:20.344Z,475.13
2022-10-11T17:53:59.066Z,451.50
2022-10-11T17:56:37.407Z,416.77
2022-10-11T17:59:10.788Z,415.02
2022-10-11T18:01:39.861Z,418.75
2022-10-11T18:04:13.457Z,431.58
2022-10-11T18:06:43.528Z,442.53
2022-10-11T18:09:14.851Z,435.08
2022-10-11T18:11:43.637Z,438.25
2022-10-11T18:14:12.632Z,439.30
2022-10-11T18:16:41.941Z,429.42
2022-10-11T18:19:13.086Z,430.45
2022-10-11T18:21:45.295Z,414.23
2022-10-11T18:24:17.183Z,429.20
2022-10-11T18:26:46.349Z,423.92
2022-10-11T18:29:15.227Z,457.75
2022-10-11T18:31:48.027Z,441.13
2022-10-11T18:34:16.899Z,455.02
2022-10-11T18:36:45.848Z,450.45
2022-10-11T18:39:21.924Z,402.60
2022-10-11T18:42:15.588Z,435.58
2022-10-11T18:47:56.505Z,451.38
2022-10-11T18:50:27.620Z,425.77
2022-10-11T18:53:12.775Z,461.33
2022-10-11T18:55:45.357Z,431.70
2022-10-11T18:58:15.238Z,420.45
2022-10-11T19:01:10.583Z,431.08
2022-10-11T19:03:46.350Z,400.17
2022-10-11T19:06:20.141Z,376.75
2022-10-11T19:09:22.405Z,431.40
2022-10-11T19:12:02.103Z,323.50
2022-10-11T19:14:51.405Z,443.25
2022-10-11T19:17:47.339Z,443.05
2022-10-11T19:20:31.383Z,445.65
2022-10-11T19:26:48.450Z,437.23
2022-10-11T19:29:30.946Z,465.00
2022-10-11T19:32:16.720Z,461.38
2022-10-11T19:48:55.981Z,430.98
2022-10-11T19:51:28.980Z,376.13
2022-10-11T19:54:03.911Z,439.33
2022-10-11T19:56:41.082Z,398.52
2022-10-11T19:59:16.733Z,464.10
2022-10-11T20:01:52.453Z,366.52
2022-10-11T20:04:50.998Z,436.08
2022-10-11T20:09:48.153Z,321.45
2022-10-11T20:12:19.352Z,458.33
2022-10-11T20:14:51.105Z,452.42
2022-10-11T20:17:20.216Z,446.33
2022-10-11T20:19:55.934Z,432.80
2022-10-11T20:22:27.628Z,431.73
2022-10-11T20:24:58.335Z,425.73
2022-10-11T20:27:27.307Z,471.80
2022-10-11T20:30:01.693Z,459.83
2022-10-11T20:32:31.234Z,462.17
2022-10-11T20:35:05.870Z,459.45
2022-10-11T20:37:36.248Z,413.40
2022-10-11T20:40:05.419Z,445.42
2022-10-11T20:42:34.050Z,473.33
2022-10-11T20:45:14.917Z,436.25
2022-10-11T20:47:43.425Z,413.92
2022-10-11T20:50:23.286Z,433.00
2022-10-11T20:53:18.584Z,430.10
2022-10-11T20:55:47.914Z,433.20
2022-10-11T20:58:24.440Z,421.40
2022-10-11T21:01:30.099Z,414.98
2022-10-11T21:04:24.691Z,427.55
2022-10-11T21:06:57.192Z,437.52
2022-10-11T21:09:26.051Z,464.83
2022-10-11T21:11:54.745Z,442.73
2022-10-11T21:14:23.513Z,461.65
2022-10-11T21:16:52.223Z,459.42
2022-10-11T21:23:56.319Z,451.13
2022-10-11T21:44:23.631Z,418.67
2022-10-11T21:47:17.266Z,451.88
2022-10-11T21:49:57.298Z,446.33
2022-10-11T21:52:39.459Z,459.25
2022-10-11T21:55:16.651Z,457.88
2022-10-11T21:57:48.165Z,456.48
2022-10-11T22:00:18.184Z,452.77
2022-10-11T22:02:47.617Z,440.35
2022-10-11T22:05:16.676Z,464.90
2022-10-11T22:07:45.727Z,467.13
2022-10-11T22:10:14.682Z,489.33
2022-10-11T22:12:43.342Z,463.85
2022-10-11T22:15:12.310Z,468.15
2022-10-11T22:17:42.433Z,467.92
2022-10-11T22:20:14.762Z,438.73
2022-10-11T22:22:43.392Z,438.20
2022-10-11T22:25:16.551Z,466.42
2022-10-11T22:27:45.320Z,462.55
2022-10-11T22:30:14.186Z,457.98
2022-10-11T22:32:43.947Z,454.23
2022-10-11T22:35:12.658Z,469.45
2022-10-11T22:37:41.122Z,466.13
2022-10-11T22:40:10.399Z,462.35
2022-10-11T22:42:38.998Z,491.08
2022-10-11T22:45:08.239Z,486.60
2022-10-11T22:47:37.155Z,456.00
2022-10-11T22:50:07.835Z,446.58
2022-10-11T22:52:36.489Z,461.77
2022-10-11T22:55:05.152Z,433.90
2022-10-11T22:57:33.918Z,464.77
2022-10-11T23:00:02.630Z,450.20
2022-10-11T23:02:31.084Z,446.83
2022-10-11T23:04:59.612Z,462.17
2022-10-11T23:07:29.485Z,460.10
2022-10-11T23:09:58.241Z,467.10
2022-10-11T23:12:26.696Z,444.98
2022-10-11T23:14:55.529Z,471.80
2022-10-11T23:17:24.109Z,474.02
2022-10-11T23:19:52.663Z,475.08
2022-10-11T23:22:21.220Z,475.85
2022-10-11T23:24:51.049Z,465.55
2022-10-11T23:27:19.541Z,488.50
2022-10-11T23:29:48.017Z,525.78
2022-10-11T23:32:16.507Z,490.05
2022-10-11T23:34:45.038Z,467.00
2022-10-11T23:37:13.619Z,491.42
2022-10-11T23:39:42.047Z,464.05
2022-10-11T23:42:12.052Z,481.02
2022-10-11T23:44:40.652Z,485.60
2022-10-11T23:47:09.298Z,514.65
2022-10-11T23:49:38.126Z,494.33
2022-10-11T23:52:06.782Z,497.52
2022-10-11T23:54:37.943Z,479.05
2022-10-11T23:57:06.858Z,472.33
2022-10-11T23:59:36.611Z,472.02
